createdAt,value
2018-07-27T00:00:07.763Z,0
2018-07-27T00:01:17.852Z,0
2018-07-27T00:02:27.674Z,0
2018-07-27T00:03:37.741Z,0
2018-07-27T00:04:47.810Z,0
2018-07-27T00:05:57.884Z,0
2018-07-27T00:07:07.944Z,0
2018-07-27T00:08:18.018Z,0
2018-07-27T00:09:27.850Z,0
2018-07-27T00:10:37.678Z,0
2018-07-27T00:11:47.760Z,0
2018-07-27T00:12:57.834Z,0
2018-07-27T00:14:07.907Z,0
2018-07-27T00:15:17.464Z,0
2018-07-27T00:16:27.538Z,0
2018-07-27T00:17:37.621Z,0
2018-07-27T00:18:47.735Z,0
2018-07-27T00:19:57.808Z,0
2018-07-27T00:21:07.874Z,0
2018-07-27T00:22:17.690Z,0
2018-07-27T00:23:27.772Z,0
2018-07-27T00:24:37.883Z,0
2018-07-27T00:25:47.972Z,0
2018-07-27T00:26:58.043Z,0
2018-07-27T00:28:08.129Z,0
2018-07-27T00:29:18.219Z,0
2018-07-27T00:30:28.023Z,0
2018-07-27T00:31:37.863Z,0
2018-07-27T00:32:47.941Z,0
2018-07-27T00:33:57.836Z,0
2018-07-27T00:35:07.579Z,0
2018-07-27T00:36:17.397Z,0
2018-07-27T00:37:27.464Z,0
2018-07-27T00:38:37.571Z,0
2018-07-27T00:39:47.641Z,0
2018-07-27T00:40:57.719Z,0
2018-07-27T00:42:07.675Z,0
2018-07-27T00:43:17.739Z,0
2018-07-27T00:44:27.285Z,0
2018-07-27T00:45:37.099Z,0
2018-07-27T00:46:47.169Z,0
2018-07-27T00:47:57.296Z,0
2018-07-27T00:49:07.126Z,0
2018-07-27T00:50:17.205Z,0
2018-07-27T00:51:27.270Z,0
2018-07-27T00:52:37.346Z,0
2018-07-27T00:53:47.436Z,0
2018-07-27T00:54:57.263Z,0
2018-07-27T00:56:07.360Z,0
2018-07-27T00:57:17.181Z,0
2018-07-27T00:58:27.250Z,0
2018-07-27T00:59:37.356Z,0
2018-07-27T01:00:47.165Z,0
2018-07-27T01:01:56.972Z,0
2018-07-27T01:03:06.776Z,0
2018-07-27T01:04:16.329Z,0
2018-07-27T01:05:26.457Z,0
2018-07-27T01:06:36.267Z,0
2018-07-27T01:07:46.331Z,0
2018-07-27T01:08:56.413Z,0
2018-07-27T01:10:06.502Z,0
2018-07-27T01:11:16.641Z,0
2018-07-27T01:12:26.748Z,0
2018-07-27T01:13:36.831Z,0
2018-07-27T01:14:46.665Z,0
2018-07-27T01:15:56.735Z,0
2018-07-27T01:17:06.822Z,0
2018-07-27T01:18:16.633Z,0
2018-07-27T01:19:26.726Z,0
2018-07-27T01:20:36.813Z,0
2018-07-27T01:21:46.635Z,0
2018-07-27T01:22:56.706Z,0
2018-07-27T01:24:06.762Z,0
2018-07-27T01:25:16.576Z,0
2018-07-27T01:26:26.645Z,0
2018-07-27T01:27:36.928Z,0
2018-07-27T01:28:47.029Z,0
2018-07-27T01:29:57.125Z,0
2018-07-27T01:31:06.932Z,0
2018-07-27T01:32:17.014Z,0
2018-07-27T01:33:26.825Z,0
2018-07-27T01:34:36.907Z,0
2018-07-27T01:35:46.977Z,0
2018-07-27T01:36:57.064Z,0
2018-07-27T01:38:07.136Z,0
2018-07-27T01:39:17.212Z,0
2018-07-27T01:40:27.286Z,0
2018-07-27T01:41:37.093Z,0
2018-07-27T01:42:47.164Z,0
2018-07-27T01:43:56.978Z,0
2018-07-27T01:45:07.051Z,0
2018-07-27T01:46:17.124Z,0
2018-07-27T01:47:27.199Z,0
2018-07-27T01:48:37.267Z,0
2018-07-27T01:49:46.801Z,0
2018-07-27T01:50:57.055Z,0
2018-07-27T01:52:07.268Z,0
2018-07-27T01:53:17.331Z,0
2018-07-27T01:54:27.417Z,0
2018-07-27T01:55:37.063Z,0
2018-07-27T01:56:47.136Z,0
2018-07-27T01:57:57.213Z,0
2018-07-27T01:59:07.300Z,0
2018-07-27T02:00:17.402Z,0
2018-07-27T02:01:27.476Z,0
2018-07-27T02:02:37.553Z,0
2018-07-27T02:03:47.369Z,0
2018-07-27T02:04:57.444Z,0
2018-07-27T02:06:07.946Z,0
2018-07-27T02:07:18.035Z,0
2018-07-27T02:08:28.131Z,0
2018-07-27T02:09:38.198Z,0
2018-07-27T02:10:47.767Z,0
2018-07-27T02:11:57.863Z,0
2018-07-27T02:13:07.877Z,0
2018-07-27T02:14:18.020Z,0
2018-07-27T02:15:28.202Z,0
2018-07-27T02:16:38.269Z,0
2018-07-27T02:17:47.825Z,0
2018-07-27T02:18:57.634Z,0
2018-07-27T02:20:07.435Z,0
2018-07-27T02:21:17.564Z,0
2018-07-27T02:22:27.388Z,0
2018-07-27T02:23:37.693Z,0
2018-07-27T02:24:47.791Z,0
2018-07-27T02:25:57.870Z,0
2018-07-27T02:27:07.959Z,0
2018-07-27T02:28:18.032Z,0
2018-07-27T02:29:28.107Z,0
2018-07-27T02:30:38.205Z,0
2018-07-27T02:31:47.769Z,0
2018-07-27T02:32:57.328Z,0
2018-07-27T02:34:07.525Z,0
2018-07-27T02:35:17.354Z,0
2018-07-27T02:36:27.183Z,0
2018-07-27T02:37:37.252Z,0
2018-07-27T02:38:47.318Z,0
2018-07-27T02:39:57.671Z,0
2018-07-27T02:41:08.041Z,0
2018-07-27T02:42:18.168Z,0
2018-07-27T02:43:27.986Z,0
2018-07-27T02:44:38.056Z,0
2018-07-27T02:45:47.889Z,0
2018-07-27T02:46:57.715Z,0
2018-07-27T02:48:07.008Z,0
2018-07-27T02:49:17.071Z,0
2018-07-27T02:50:27.150Z,0
2018-07-27T02:51:37.591Z,0
2018-07-27T02:52:47.689Z,0
2018-07-27T02:53:57.520Z,0
2018-07-27T02:55:07.342Z,0
2018-07-27T02:56:16.889Z,0
2018-07-27T02:57:26.989Z,0
2018-07-27T02:58:37.062Z,0
2018-07-27T02:59:47.143Z,0
2018-07-27T03:00:57.215Z,0
2018-07-27T03:02:07.293Z,0
2018-07-27T03:35:09.450Z,10
2018-07-27T03:36:18.734Z,15
2018-07-27T03:37:28.531Z,15
2018-07-27T03:38:38.626Z,15
2018-07-27T03:39:48.713Z,20
2018-07-27T03:40:58.546Z,20
2018-07-27T03:42:08.850Z,20
2018-07-27T03:43:18.997Z,20
2018-07-27T03:44:29.059Z,25
2018-07-27T03:45:39.132Z,25
2018-07-27T03:46:48.711Z,25
2018-07-27T03:47:58.790Z,30
2018-07-27T03:49:08.867Z,30
2018-07-27T03:50:18.943Z,30
2018-07-27T03:51:29.018Z,30
2018-07-27T03:52:39.137Z,35
2018-07-27T03:53:48.960Z,35
2018-07-27T03:54:59.277Z,35
2018-07-27T03:56:09.355Z,35
2018-07-27T03:57:19.412Z,35
2018-07-27T03:58:29.491Z,35
2018-07-27T03:59:39.563Z,40
2018-07-27T04:00:49.630Z,40
2018-07-27T04:01:59.451Z,45
2018-07-27T04:03:09.536Z,45
2018-07-27T04:04:19.664Z,50
2018-07-27T04:05:29.489Z,50
2018-07-27T04:06:39.570Z,55
2018-07-27T04:07:49.645Z,55
2018-07-27T04:08:59.457Z,55
2018-07-27T04:10:09.623Z,60
2018-07-27T04:11:19.697Z,60
2018-07-27T04:12:29.777Z,60
2018-07-27T04:13:39.589Z,60
2018-07-27T04:14:49.505Z,65
2018-07-27T04:15:59.870Z,65
2018-07-27T04:17:09.978Z,65
2018-07-27T04:18:20.059Z,65
2018-07-27T04:19:30.143Z,60
2018-07-27T04:20:39.982Z,60
2018-07-27T04:21:50.101Z,60
2018-07-27T04:22:59.906Z,60
2018-07-27T04:24:09.727Z,60
2018-07-27T04:25:19.817Z,65
2018-07-27T04:26:30.282Z,85
2018-07-27T04:27:40.488Z,155
2018-07-27T04:28:50.298Z,150
2018-07-27T04:30:00.367Z,100
2018-07-27T04:31:09.908Z,75
2018-07-27T04:32:19.997Z,80
2018-07-27T04:33:30.166Z,75
2018-07-27T04:34:40.260Z,75
2018-07-27T04:35:50.464Z,75
2018-07-27T04:37:00.561Z,75
2018-07-27T04:38:10.650Z,90
2018-07-27T04:39:20.776Z,100
2018-07-27T04:40:30.606Z,95
2018-07-27T04:41:40.400Z,95
2018-07-27T04:42:50.520Z,85
2018-07-27T04:44:00.333Z,80
2018-07-27T04:45:10.436Z,80
2018-07-27T04:46:20.527Z,85
2018-07-27T04:47:30.623Z,85
2018-07-27T04:48:40.455Z,90
2018-07-27T04:49:50.526Z,95
2018-07-27T04:51:00.618Z,95
2018-07-27T04:52:10.455Z,95
2018-07-27T04:53:20.271Z,95
2018-07-27T04:54:30.350Z,100
2018-07-27T04:55:40.425Z,95
2018-07-27T04:56:53.515Z,95
2018-07-27T04:58:05.848Z,100
2018-07-27T04:59:18.871Z,100
2018-07-27T05:00:32.406Z,105
2018-07-27T05:01:42.947Z,105
2018-07-27T05:02:52.760Z,105
2018-07-27T05:04:02.590Z,105
2018-07-27T05:05:12.691Z,105
2018-07-27T05:06:22.770Z,105
2018-07-27T05:07:32.642Z,105
2018-07-27T05:08:42.723Z,110
2018-07-27T05:09:52.796Z,110
2018-07-27T05:11:02.863Z,115
2018-07-27T05:12:12.950Z,120
2018-07-27T05:13:23.025Z,125
2018-07-27T05:14:32.573Z,125
2018-07-27T05:15:42.658Z,130
2018-07-27T05:16:52.756Z,130
2018-07-27T05:18:02.573Z,130
2018-07-27T05:19:12.648Z,130
2018-07-27T05:20:22.528Z,135
2018-07-27T05:21:32.683Z,135
2018-07-27T05:22:42.764Z,140
2018-07-27T05:23:52.835Z,140
2018-07-27T05:25:02.910Z,140
2018-07-27T05:26:12.993Z,135
2018-07-27T05:27:23.074Z,135
2018-07-27T05:28:33.152Z,135
2018-07-27T05:29:43.246Z,135
2018-07-27T05:30:53.372Z,135
2018-07-27T05:32:03.448Z,135
2018-07-27T05:33:13.529Z,135
2018-07-27T05:34:23.895Z,135
2018-07-27T05:35:33.747Z,135
2018-07-27T05:36:43.943Z,140
2018-07-27T05:37:53.747Z,140
2018-07-27T05:39:03.818Z,145
2018-07-27T05:40:13.626Z,150
2018-07-27T05:41:23.438Z,150
2018-07-27T05:42:33.501Z,155
2018-07-27T05:43:43.316Z,160
2018-07-27T05:44:53.405Z,165
2018-07-27T05:46:03.484Z,165
2018-07-27T05:47:14.043Z,160
2018-07-27T05:48:24.234Z,165
2018-07-27T05:49:34.321Z,165
2018-07-27T05:50:44.156Z,165
2018-07-27T05:51:54.227Z,165
2018-07-27T05:53:04.348Z,165
2018-07-27T05:54:14.462Z,165
2018-07-27T05:55:24.532Z,165
2018-07-27T05:56:34.611Z,165
2018-07-27T05:57:44.700Z,165
2018-07-27T05:58:54.792Z,165
2018-07-27T06:00:04.659Z,170
2018-07-27T06:01:15.039Z,170
2018-07-27T06:02:26.965Z,170
2018-07-27T06:03:37.054Z,175
2018-07-27T06:04:47.210Z,175
2018-07-27T06:05:57.317Z,180
2018-07-27T06:07:07.407Z,175
2018-07-27T06:08:17.230Z,175
2018-07-27T06:09:27.045Z,175
2018-07-27T06:10:37.150Z,175
2018-07-27T06:11:47.022Z,170
2018-07-27T06:12:57.162Z,170
2018-07-27T06:14:07.261Z,170
2018-07-27T06:15:17.397Z,170
2018-07-27T06:16:27.238Z,170
2018-07-27T06:17:37.338Z,170
2018-07-27T06:18:47.163Z,170
2018-07-27T06:19:56.982Z,170
2018-07-27T06:21:07.088Z,170
2018-07-27T06:22:17.223Z,165
2018-07-27T06:23:27.309Z,165
2018-07-27T06:24:37.397Z,165
2018-07-27T06:25:47.710Z,165
2018-07-27T06:26:57.800Z,170
2018-07-27T06:28:07.945Z,170
2018-07-27T06:29:18.248Z,170
2018-07-27T06:30:28.341Z,175
2018-07-27T06:31:38.417Z,175
2018-07-27T06:32:48.503Z,175
2018-07-27T06:33:58.578Z,175
2018-07-27T06:35:08.676Z,180
2018-07-27T06:36:18.495Z,180
2018-07-27T06:37:28.340Z,180
2018-07-27T06:38:38.405Z,180
2018-07-27T06:39:48.507Z,180
2018-07-27T06:40:58.583Z,185
2018-07-27T06:42:08.688Z,185
2018-07-27T06:43:18.762Z,190
2018-07-27T06:44:28.598Z,190
2018-07-27T06:45:38.704Z,195
2018-07-27T06:46:48.786Z,195
2018-07-27T06:47:58.874Z,195
2018-07-27T06:49:08.967Z,195
2018-07-27T06:50:18.802Z,195
2018-07-27T06:51:28.630Z,195
2018-07-27T06:52:39.164Z,200
2018-07-27T06:53:49.235Z,200
2018-07-27T06:54:59.077Z,200
2018-07-27T06:56:09.175Z,205
2018-07-27T06:57:19.267Z,205
2018-07-27T06:58:29.454Z,210
2018-07-27T06:59:39.553Z,215
2018-07-27T07:00:49.364Z,215
2018-07-27T07:01:59.457Z,220
2018-07-27T07:03:09.571Z,230
2018-07-27T07:04:19.175Z,230
2018-07-27T07:05:28.471Z,235
2018-07-27T07:06:38.563Z,240
2018-07-27T07:07:48.438Z,240
2018-07-27T07:08:58.542Z,245
2018-07-27T07:10:08.613Z,245
2018-07-27T07:11:18.434Z,250
2018-07-27T07:12:28.521Z,250
2018-07-27T07:13:38.349Z,255
2018-07-27T07:14:48.460Z,255
2018-07-27T07:15:58.633Z,260
2018-07-27T07:17:08.725Z,265
2018-07-27T07:18:18.812Z,265
2018-07-27T07:19:28.906Z,270
2018-07-27T07:20:38.463Z,275
2018-07-27T07:21:48.594Z,275
2018-07-27T07:22:58.409Z,275
2018-07-27T07:24:08.222Z,275
2018-07-27T07:25:19.069Z,280
2018-07-27T07:26:29.164Z,275
2018-07-27T07:27:39.289Z,280
2018-07-27T07:28:49.114Z,275
2018-07-27T07:29:58.930Z,280
2018-07-27T07:31:09.012Z,290
2018-07-27T07:32:18.822Z,285
2018-07-27T07:33:28.915Z,290
2018-07-27T07:34:38.999Z,295
2018-07-27T07:35:48.855Z,300
2018-07-27T07:36:58.949Z,305
2018-07-27T07:38:08.771Z,315
2018-07-27T07:39:18.920Z,305
2018-07-27T07:40:29.011Z,295
2018-07-27T07:41:39.133Z,295
2018-07-27T07:42:49.233Z,295
2018-07-27T07:43:59.735Z,305
2018-07-27T07:45:09.978Z,320
2018-07-27T07:46:20.192Z,320
2018-07-27T07:47:30.304Z,315
2018-07-27T07:48:40.437Z,315
2018-07-27T07:49:50.561Z,310
2018-07-27T07:51:00.657Z,315
2018-07-27T07:52:10.488Z,310
2018-07-27T07:53:20.343Z,310
2018-07-27T07:54:30.182Z,325
2018-07-27T07:55:40.274Z,350
2018-07-27T07:56:50.388Z,315
2018-07-27T07:58:00.485Z,320
2018-07-27T07:59:10.307Z,315
2018-07-27T08:00:20.168Z,325
2018-07-27T08:01:30.020Z,325
2018-07-27T08:02:40.145Z,330
2018-07-27T08:03:50.225Z,320
2018-07-27T08:05:00.579Z,340
2018-07-27T08:06:10.737Z,330
2018-07-27T08:07:20.573Z,335
2018-07-27T08:08:30.771Z,310
2018-07-27T08:09:40.335Z,305
2018-07-27T08:10:50.426Z,315
2018-07-27T08:12:00.616Z,285
2018-07-27T08:13:10.442Z,315
2018-07-27T08:14:20.568Z,310
2018-07-27T08:15:30.647Z,305
2018-07-27T08:16:40.731Z,285
2018-07-27T08:17:50.570Z,280
2018-07-27T08:19:00.675Z,270
2018-07-27T08:20:10.826Z,270
2018-07-27T08:21:20.968Z,245
2018-07-27T08:22:31.075Z,230
2018-07-27T08:23:41.175Z,220
2018-07-27T08:24:51.271Z,220
2018-07-27T08:26:01.748Z,220
2018-07-27T08:27:11.637Z,225
2018-07-27T08:28:21.450Z,240
2018-07-27T08:29:31.538Z,225
2018-07-27T08:30:41.643Z,240
2018-07-27T08:31:51.731Z,235
2018-07-27T08:33:01.799Z,240
2018-07-27T08:34:11.894Z,200
2018-07-27T08:35:21.971Z,205
2018-07-27T08:36:31.782Z,220
2018-07-27T08:37:41.596Z,235
2018-07-27T08:38:51.726Z,200
2018-07-27T08:40:01.816Z,210
2018-07-27T08:41:11.650Z,195
2018-07-27T08:42:21.479Z,210
2018-07-27T08:43:31.563Z,235
2018-07-27T08:44:41.707Z,230
2018-07-27T08:45:51.800Z,230
2018-07-27T08:47:01.883Z,225
2018-07-27T08:48:11.980Z,220
2018-07-27T08:49:22.079Z,220
2018-07-27T08:50:31.947Z,220
2018-07-27T08:51:42.045Z,220
2018-07-27T08:52:52.154Z,215
2018-07-27T08:54:02.269Z,220
2018-07-27T08:55:12.112Z,205
2018-07-27T08:56:22.835Z,210
2018-07-27T08:57:33.007Z,210
2018-07-27T08:58:43.107Z,215
2018-07-27T08:59:53.188Z,215
2018-07-27T09:01:03.286Z,210
2018-07-27T09:02:13.384Z,215
2018-07-27T09:03:23.488Z,215
2018-07-27T09:04:33.576Z,215
2018-07-27T09:05:43.669Z,215
2018-07-27T09:06:53.788Z,215
2018-07-27T09:08:04.181Z,215
2018-07-27T09:09:14.270Z,215
2018-07-27T09:10:24.586Z,215
2018-07-27T09:11:34.674Z,215
2018-07-27T09:12:44.497Z,210
2018-07-27T09:13:54.594Z,210
2018-07-27T09:15:04.499Z,200
2018-07-27T09:16:14.588Z,200
2018-07-27T09:17:24.978Z,200
2018-07-27T09:18:34.818Z,200
2018-07-27T09:19:44.968Z,200
2018-07-27T09:20:55.060Z,200
2018-07-27T09:22:05.157Z,200
2018-07-27T09:23:14.972Z,200
2018-07-27T09:24:26.099Z,200
2018-07-27T09:25:36.742Z,200
2018-07-27T09:26:46.864Z,205
2018-07-27T09:27:56.978Z,200
2018-07-27T09:29:06.833Z,200
2018-07-27T09:30:16.906Z,200
2018-07-27T09:31:27.010Z,200
2018-07-27T09:32:37.090Z,200
2018-07-27T09:33:47.198Z,200
2018-07-27T09:34:57.296Z,200
2018-07-27T09:36:07.388Z,200
2018-07-27T09:37:17.502Z,200
2018-07-27T09:38:27.324Z,200
2018-07-27T09:39:37.208Z,200
2018-07-27T09:40:47.516Z,200
2018-07-27T09:41:57.617Z,200
2018-07-27T09:43:07.797Z,205
2018-07-27T09:44:17.625Z,200
2018-07-27T09:45:27.737Z,200
2018-07-27T09:46:38.202Z,200
2018-07-27T09:47:48.330Z,200
2018-07-27T09:48:58.426Z,170
2018-07-27T09:50:08.255Z,175
2018-07-27T09:51:18.380Z,205
2018-07-27T09:52:28.218Z,210
2018-07-27T09:53:38.449Z,210
2018-07-27T09:54:48.422Z,205
2018-07-27T09:55:58.519Z,205
2018-07-27T09:57:08.614Z,205
2018-07-27T09:58:21.345Z,205
2018-07-27T09:59:33.099Z,205
2018-07-27T10:00:44.357Z,220
2018-07-27T10:01:54.198Z,215
2018-07-27T10:03:04.299Z,215
2018-07-27T10:04:14.388Z,220
2018-07-27T10:05:24.223Z,200
2018-07-27T10:06:34.349Z,215
2018-07-27T10:07:44.199Z,210
2018-07-27T10:08:54.299Z,210
2018-07-27T10:10:04.120Z,205
2018-07-27T10:11:13.973Z,205
2018-07-27T10:12:24.073Z,210
2018-07-27T10:13:33.902Z,215
2018-07-27T10:14:43.752Z,210
2018-07-27T10:15:53.836Z,145
2018-07-27T10:17:03.944Z,145
2018-07-27T10:18:13.818Z,215
2018-07-27T10:19:23.495Z,215
2018-07-27T10:20:33.598Z,215
2018-07-27T10:21:43.693Z,215
2018-07-27T10:22:53.779Z,215
2018-07-27T10:24:03.742Z,225
2018-07-27T10:25:13.819Z,175
2018-07-27T10:26:23.682Z,165
2018-07-27T10:27:33.792Z,160
2018-07-27T10:28:43.376Z,160
2018-07-27T10:29:53.471Z,160
2018-07-27T10:31:03.563Z,175
2018-07-27T10:32:13.124Z,215
2018-07-27T10:33:23.213Z,135
2018-07-27T10:34:33.046Z,130
2018-07-27T10:35:43.189Z,165
2018-07-27T10:36:53.274Z,195
2018-07-27T10:38:03.371Z,220
2018-07-27T10:39:13.464Z,230
2018-07-27T10:40:23.565Z,230
2018-07-27T10:41:33.730Z,240
2018-07-27T10:42:43.558Z,245
2018-07-27T10:43:53.656Z,245
2018-07-27T10:45:03.713Z,240
2018-07-27T10:46:13.829Z,240
2018-07-27T10:47:23.632Z,220
2018-07-27T10:48:33.734Z,235
2018-07-27T10:49:43.934Z,230
2018-07-27T10:50:54.076Z,230
2018-07-27T10:52:03.917Z,230
2018-07-27T10:53:14.012Z,230
2018-07-27T10:54:24.089Z,230
2018-07-27T10:55:34.202Z,240
2018-07-27T10:56:44.336Z,245
2018-07-27T10:57:54.153Z,235
2018-07-27T10:59:04.256Z,245
2018-07-27T11:00:14.369Z,240
2018-07-27T11:01:24.449Z,235
2018-07-27T11:02:35.042Z,180
2018-07-27T11:03:45.107Z,265
2018-07-27T11:04:55.193Z,250
2018-07-27T11:06:05.291Z,245
2018-07-27T11:07:15.128Z,245
2018-07-27T11:08:25.221Z,240
2018-07-27T11:09:35.318Z,205
2018-07-27T11:10:45.466Z,170
2018-07-27T11:11:55.563Z,245
2018-07-27T11:13:05.644Z,270
2018-07-27T11:14:15.717Z,280
2018-07-27T11:15:25.987Z,290
2018-07-27T11:16:36.324Z,295
2018-07-27T11:17:46.810Z,300
2018-07-27T11:18:56.642Z,290
2018-07-27T11:20:06.467Z,280
2018-07-27T11:21:16.644Z,275
2018-07-27T11:22:26.470Z,270
2018-07-27T11:23:36.552Z,265
2018-07-27T11:24:46.635Z,165
2018-07-27T11:25:56.720Z,170
2018-07-27T11:27:06.819Z,170
2018-07-27T11:28:16.926Z,170
2018-07-27T11:29:26.751Z,180
2018-07-27T11:30:36.825Z,200
2018-07-27T11:31:46.918Z,225
2018-07-27T11:32:57.015Z,235
2018-07-27T11:34:07.126Z,325
2018-07-27T11:35:17.218Z,305
2018-07-27T11:36:27.313Z,285
2018-07-27T11:37:37.585Z,220
2018-07-27T11:38:47.670Z,150
2018-07-27T11:39:57.544Z,135
2018-07-27T11:41:07.372Z,130
2018-07-27T11:42:17.750Z,125
2018-07-27T11:43:27.880Z,125
2018-07-27T11:44:37.458Z,125
2018-07-27T11:45:47.559Z,130
2018-07-27T11:46:57.647Z,135
2018-07-27T11:48:07.733Z,140
2018-07-27T11:49:17.841Z,145
2018-07-27T11:50:27.934Z,165
2018-07-27T11:51:38.042Z,200
2018-07-27T11:52:47.331Z,280
2018-07-27T11:53:57.427Z,285
2018-07-27T11:55:07.516Z,285
2018-07-27T11:56:17.639Z,290
2018-07-27T11:57:27.755Z,295
2018-07-27T11:58:37.848Z,290
2018-07-27T11:59:47.401Z,290
2018-07-27T12:00:57.243Z,280
2018-07-27T12:02:07.074Z,270
2018-07-27T12:03:17.148Z,255
2018-07-27T12:04:27.245Z,170
2018-07-27T12:05:37.085Z,160
2018-07-27T12:06:47.175Z,240
2018-07-27T12:07:57.295Z,255
2018-07-27T12:09:07.381Z,235
2018-07-27T12:10:17.466Z,190
2018-07-27T12:11:27.551Z,140
2018-07-27T12:12:37.379Z,135
2018-07-27T12:13:47.713Z,135
2018-07-27T12:14:59.330Z,145
2018-07-27T12:16:09.556Z,160
2018-07-27T12:17:19.630Z,165
2018-07-27T12:18:29.713Z,165
2018-07-27T12:19:39.559Z,245
2018-07-27T12:20:49.873Z,285
2018-07-27T12:21:59.489Z,295
2018-07-27T12:23:09.582Z,295
2018-07-27T12:24:19.694Z,295
2018-07-27T12:25:29.779Z,295
2018-07-27T12:26:39.620Z,290
2018-07-27T12:27:49.435Z,280
2018-07-27T12:28:59.286Z,265
2018-07-27T12:30:09.124Z,230
2018-07-27T12:31:18.972Z,260
2018-07-27T12:32:29.132Z,265
2018-07-27T12:33:39.272Z,260
2018-07-27T12:34:49.127Z,260
2018-07-27T12:35:59.224Z,255
2018-07-27T12:37:09.315Z,255
2018-07-27T12:38:19.171Z,255
2018-07-27T12:39:29.242Z,195
2018-07-27T12:40:39.068Z,165
2018-07-27T12:41:49.156Z,160
2018-07-27T12:42:58.987Z,220
2018-07-27T12:44:09.075Z,250
2018-07-27T12:45:19.179Z,250
2018-07-27T12:46:29.286Z,250
2018-07-27T12:47:39.110Z,255
2018-07-27T12:48:49.201Z,255
2018-07-27T12:49:59.088Z,260
2018-07-27T12:51:09.201Z,265
2018-07-27T12:52:19.301Z,265
2018-07-27T12:53:29.112Z,270
2018-07-27T12:54:39.221Z,270
2018-07-27T12:55:49.062Z,265
2018-07-27T12:56:59.142Z,180
2018-07-27T12:58:09.240Z,260
2018-07-27T12:59:19.377Z,165
2018-07-27T13:00:29.483Z,155
2018-07-27T13:01:39.583Z,145
2018-07-27T13:02:49.660Z,140
2018-07-27T13:03:59.494Z,140
2018-07-27T13:05:09.766Z,135
2018-07-27T13:06:19.917Z,140
2018-07-27T13:07:29.741Z,140
2018-07-27T13:08:39.836Z,140
2018-07-27T13:09:49.675Z,140
2018-07-27T13:10:59.675Z,145
2018-07-27T13:12:09.762Z,145
2018-07-27T13:13:20.102Z,145
2018-07-27T13:14:30.209Z,145
2018-07-27T13:15:40.302Z,145
2018-07-27T13:16:50.136Z,150
2018-07-27T13:18:00.237Z,230
2018-07-27T13:19:10.347Z,230
2018-07-27T13:20:20.418Z,235
2018-07-27T13:21:30.510Z,225
2018-07-27T13:22:40.732Z,140
2018-07-27T13:23:50.819Z,135
2018-07-27T13:25:07.336Z,145
2018-07-27T13:26:32.366Z,145
2018-07-27T13:27:42.489Z,130
2018-07-27T13:28:52.598Z,125
2018-07-27T13:30:02.698Z,120
2018-07-27T13:31:12.803Z,125
2018-07-27T13:32:22.621Z,110
2018-07-27T13:33:32.720Z,105
2018-07-27T13:34:42.938Z,105
2018-07-27T13:35:53.139Z,105
2018-07-27T13:37:03.228Z,100
2018-07-27T13:38:13.402Z,100
2018-07-27T13:39:23.525Z,100
2018-07-27T13:40:33.642Z,105
2018-07-27T13:41:43.794Z,105
2018-07-27T13:42:53.927Z,110
2018-07-27T13:44:04.026Z,115
2018-07-27T13:45:14.105Z,125
2018-07-27T13:46:24.277Z,110
2018-07-27T13:47:34.373Z,105
2018-07-27T13:48:44.477Z,105
2018-07-27T13:49:54.579Z,105
2018-07-27T13:51:04.698Z,115
2018-07-27T13:52:14.521Z,140
2018-07-27T13:53:24.662Z,185
2018-07-27T13:54:34.975Z,185
2018-07-27T13:55:45.076Z,190
2018-07-27T13:56:55.178Z,195
2018-07-27T13:58:05.270Z,190
2018-07-27T13:59:15.589Z,195
2018-07-27T14:00:25.686Z,195
2018-07-27T14:01:35.814Z,195
2018-07-27T14:02:45.644Z,195
2018-07-27T14:03:55.727Z,195
2018-07-27T14:05:05.574Z,195
2018-07-27T14:06:15.651Z,195
2018-07-27T14:07:25.802Z,195
2018-07-27T14:08:35.901Z,190
2018-07-27T14:09:46.007Z,130
2018-07-27T14:10:56.086Z,150
2018-07-27T14:12:06.193Z,175
2018-07-27T14:13:16.291Z,190
2018-07-27T14:14:26.393Z,185
2018-07-27T14:15:36.488Z,190
2018-07-27T14:16:46.586Z,190
2018-07-27T14:17:56.683Z,185
2018-07-27T14:19:06.764Z,185
2018-07-27T14:20:16.595Z,185
2018-07-27T14:21:26.918Z,180
2018-07-27T14:22:37.059Z,180
2018-07-27T14:23:47.348Z,180
2018-07-27T14:24:57.442Z,185
2018-07-27T14:26:07.020Z,185
2018-07-27T14:27:17.129Z,185
2018-07-27T14:28:27.272Z,180
2018-07-27T14:29:37.389Z,180
2018-07-27T14:30:47.496Z,175
2018-07-27T14:31:57.597Z,180
2018-07-27T14:33:07.686Z,185
2018-07-27T14:34:17.863Z,180
2018-07-27T14:35:27.951Z,185
2018-07-27T14:36:38.057Z,185
2018-07-27T14:37:48.156Z,185
2018-07-27T14:38:57.976Z,185
2018-07-27T14:40:08.078Z,190
2018-07-27T14:41:18.185Z,195
2018-07-27T14:42:27.756Z,190
2018-07-27T14:43:37.597Z,185
2018-07-27T14:44:47.693Z,185
2018-07-27T14:45:57.583Z,190
2018-07-27T14:47:07.157Z,140
2018-07-27T14:48:17.385Z,140
2018-07-27T14:49:27.491Z,140
2018-07-27T14:50:37.609Z,140
2018-07-27T14:51:47.713Z,135
2018-07-27T14:52:58.113Z,140
2018-07-27T14:54:07.685Z,130
2018-07-27T14:55:17.798Z,130
2018-07-27T14:56:27.892Z,130
2018-07-27T14:57:38.019Z,130
2018-07-27T14:58:48.423Z,130
2018-07-27T14:59:58.306Z,130
2018-07-27T15:01:08.196Z,135
2018-07-27T15:02:18.336Z,145
2018-07-27T15:03:28.258Z,165
2018-07-27T15:04:38.386Z,165
2018-07-27T15:05:48.496Z,165
2018-07-27T15:06:58.065Z,170
2018-07-27T15:08:08.164Z,180
2018-07-27T15:09:18.319Z,190
2018-07-27T15:10:28.172Z,200
2018-07-27T15:11:38.283Z,195
2018-07-27T15:12:48.395Z,190
2018-07-27T15:13:58.509Z,155
2018-07-27T15:15:09.295Z,135
2018-07-27T15:16:19.419Z,135
2018-07-27T15:17:33.293Z,135
2018-07-27T15:18:45.262Z,165
2018-07-27T15:19:56.310Z,145
2018-07-27T15:21:06.830Z,135
2018-07-27T15:22:17.206Z,175
2018-07-27T15:23:27.550Z,165
2018-07-27T15:24:38.420Z,150
2018-07-27T15:25:49.286Z,155
2018-07-27T15:27:00.196Z,120
2018-07-27T15:28:10.859Z,120
2018-07-27T15:29:21.393Z,135
2018-07-27T15:30:32.257Z,160
2018-07-27T15:31:42.688Z,175
2018-07-27T15:32:53.975Z,170
2018-07-27T15:34:04.871Z,175
2018-07-27T15:35:15.504Z,130
2018-07-27T15:36:25.985Z,130
2018-07-27T15:37:36.372Z,140
2018-07-27T15:38:47.317Z,175
2018-07-27T15:39:57.947Z,175
2018-07-27T15:41:08.748Z,175
2018-07-27T15:42:19.376Z,175
2018-07-27T15:43:30.263Z,170
2018-07-27T15:44:40.614Z,175
2018-07-27T15:45:51.463Z,180
2018-07-27T15:47:02.286Z,175
2018-07-27T15:48:13.291Z,175
2018-07-27T15:49:23.406Z,170
2018-07-27T15:50:33.747Z,170
2018-07-27T15:51:44.394Z,170
2018-07-27T15:52:54.762Z,165
2018-07-27T15:54:05.212Z,165
2018-07-27T15:55:15.354Z,165
2018-07-27T15:56:25.522Z,165
2018-07-27T15:57:35.641Z,165
2018-07-27T15:58:45.767Z,160
2018-07-27T15:59:55.594Z,150
2018-07-27T16:01:05.712Z,135
2018-07-27T16:02:15.560Z,120
2018-07-27T16:03:25.668Z,115
2018-07-27T16:04:35.773Z,115
2018-07-27T16:05:45.888Z,145
2018-07-27T16:06:56.006Z,145
2018-07-27T16:08:06.162Z,135
2018-07-27T16:09:15.998Z,145
2018-07-27T16:10:26.086Z,120
2018-07-27T16:11:36.170Z,120
2018-07-27T16:12:46.351Z,115
2018-07-27T16:13:56.689Z,125
2018-07-27T16:15:06.576Z,120
2018-07-27T16:16:16.706Z,145
2018-07-27T16:17:26.826Z,140
2018-07-27T16:18:36.934Z,140
2018-07-27T16:19:47.074Z,140
2018-07-27T16:20:57.179Z,140
2018-07-27T16:22:06.879Z,135
2018-07-27T16:23:17.028Z,135
2018-07-27T16:24:27.127Z,135
2018-07-27T16:25:37.226Z,135
2018-07-27T16:26:47.343Z,135
2018-07-27T16:27:57.478Z,130
2018-07-27T16:29:07.635Z,130
2018-07-27T16:30:17.734Z,130
2018-07-27T16:31:27.893Z,130
2018-07-27T16:32:37.999Z,130
2018-07-27T16:33:48.120Z,130
2018-07-27T16:34:58.237Z,130
2018-07-27T16:36:08.338Z,135
2018-07-27T16:37:18.493Z,135
2018-07-27T16:38:28.587Z,135
2018-07-27T16:39:38.775Z,140
2018-07-27T16:40:48.917Z,140
2018-07-27T16:41:58.755Z,140
2018-07-27T16:43:08.855Z,140
2018-07-27T16:44:18.449Z,135
2018-07-27T16:45:28.294Z,140
2018-07-27T16:46:38.658Z,135
2018-07-27T16:47:48.778Z,135
2018-07-27T16:48:58.664Z,130
2018-07-27T16:50:08.520Z,130
2018-07-27T16:51:18.371Z,130
2018-07-27T16:52:28.470Z,130